createdAt,value
2023-10-13T00:02:07.379Z,76.15
2023-10-13T00:04:38.100Z,76.15
2023-10-13T00:07:11.220Z,76.10
2023-10-13T00:09:44.019Z,76.06
2023-10-13T00:12:17.107Z,75.97
2023-10-13T00:14:53.039Z,75.93
2023-10-13T00:17:27.108Z,75.92
2023-10-13T00:20:02.062Z,75.89
2023-10-13T00:22:36.352Z,75.88
2023-10-13T00:25:07.171Z,75.72
2023-10-13T00:27:43.012Z,75.68
2023-10-13T00:30:22.436Z,75.63
2023-10-13T00:32:58.182Z,75.60
2023-10-13T00:35:37.288Z,75.41
2023-10-13T00:38:14.891Z,75.43
2023-10-13T00:47:37.391Z,75.26
2023-10-13T00:50:06.351Z,75.24
2023-10-13T00:52:37.086Z,75.28
2023-10-13T00:55:06.586Z,75.16
2023-10-13T00:57:35.313Z,75.33
2023-10-13T01:00:18.783Z,75.49
2023-10-13T01:02:56.536Z,75.58
2023-10-13T01:05:26.575Z,75.83
2023-10-13T01:07:55.763Z,76.03
2023-10-13T01:10:27.537Z,76.16
2023-10-13T01:12:56.252Z,76.38
2023-10-13T01:15:30.851Z,76.52
2023-10-13T01:18:13.823Z,76.60
2023-10-13T01:20:53.337Z,76.78
2023-10-13T01:23:25.764Z,76.89
2023-10-13T01:25:55.116Z,76.94
2023-10-13T01:28:25.404Z,76.97
2023-10-13T01:30:54.386Z,76.88
2023-10-13T01:33:29.762Z,76.90
2023-10-13T01:36:00.360Z,76.98
2023-10-13T01:38:28.945Z,77.09
2023-10-13T01:40:58.427Z,76.94
2023-10-13T01:43:27.030Z,76.97
2023-10-13T01:45:56.292Z,77.03
2023-10-13T01:48:24.406Z,76.90
2023-10-13T01:50:57.581Z,76.89
2023-10-13T01:53:25.842Z,77.02
2023-10-13T01:55:58.094Z,76.98
2023-10-13T01:58:30.154Z,76.75
2023-10-13T02:01:01.293Z,76.65
2023-10-13T02:03:31.439Z,76.64
2023-10-13T02:06:05.811Z,76.62
2023-10-13T02:08:41.770Z,76.34
2023-10-13T02:11:10.851Z,76.35
2023-10-13T02:13:49.794Z,76.43
2023-10-13T02:16:25.811Z,76.41
2023-10-13T02:18:54.880Z,76.55
2023-10-13T02:21:23.255Z,76.71
2023-10-13T02:24:06.663Z,76.84
2023-10-13T02:26:40.374Z,76.84
2023-10-13T02:29:08.997Z,77.00
2023-10-13T02:31:42.042Z,77.07
2023-10-13T02:34:10.484Z,77.10
2023-10-13T02:36:59.307Z,77.14
2023-10-13T02:39:28.667Z,77.25
2023-10-13T02:41:57.628Z,77.35
2023-10-13T02:44:32.462Z,77.49
2023-10-13T02:47:01.144Z,77.60
2023-10-13T02:49:35.501Z,77.80
2023-10-13T02:52:26.148Z,77.86
2023-10-13T02:54:55.008Z,77.84
2023-10-13T02:57:24.151Z,78.02
2023-10-13T02:59:58.458Z,78.21
2023-10-13T03:02:27.216Z,78.60
2023-10-13T03:05:00.760Z,78.67
2023-10-13T03:07:30.335Z,78.77
2023-10-13T03:10:02.022Z,79.00
2023-10-13T03:12:34.643Z,79.34
2023-10-13T03:15:20.540Z,79.66
2023-10-13T03:17:49.018Z,79.64
2023-10-13T03:20:25.608Z,79.60
2023-10-13T03:22:54.369Z,79.48
2023-10-13T03:25:30.216Z,79.55
2023-10-13T03:28:01.250Z,79.42
2023-10-13T03:30:56.336Z,79.30
2023-10-13T03:33:27.434Z,79.30
2023-10-13T03:35:55.764Z,79.38
2023-10-13T03:38:29.011Z,79.25
2023-10-13T03:40:58.072Z,79.01
2023-10-13T03:43:26.520Z,78.93
2023-10-13T03:46:09.386Z,79.17
2023-10-13T03:48:54.105Z,79.34
2023-10-13T03:51:22.444Z,79.21
2023-10-13T03:53:57.612Z,79.19
2023-10-13T03:56:46.111Z,79.10
2023-10-13T03:59:14.512Z,78.79
2023-10-13T04:01:59.957Z,78.77
2023-10-13T04:04:43.715Z,78.82
2023-10-13T04:07:11.820Z,78.86
2023-10-13T04:09:41.229Z,78.88
2023-10-13T04:12:27.916Z,78.94
2023-10-13T04:15:07.868Z,78.98
2023-10-13T04:17:42.527Z,78.92
2023-10-13T04:20:10.984Z,78.93
2023-10-13T04:22:49.445Z,79.02
2023-10-13T04:25:42.681Z,79.08
2023-10-13T04:28:17.620Z,79.08
2023-10-13T04:30:57.456Z,79.05
2023-10-13T04:33:36.575Z,79.18
2023-10-13T04:36:29.164Z,79.16
2023-10-13T04:39:06.341Z,79.20
2023-10-13T04:41:46.665Z,79.11
2023-10-13T04:44:35.906Z,79.30
2023-10-13T04:47:04.565Z,79.31
2023-10-13T04:49:50.920Z,79.46
2023-10-13T04:52:53.076Z,79.31
2023-10-13T04:55:39.740Z,79.14
2023-10-13T04:58:36.716Z,79.06
2023-10-13T05:01:38.214Z,79.12
2023-10-13T05:04:15.489Z,79.44
2023-10-13T05:06:46.574Z,79.43
2023-10-13T05:09:33.622Z,79.68
2023-10-13T05:12:20.477Z,79.95
2023-10-13T05:15:07.060Z,80.21
2023-10-13T05:17:53.813Z,80.45
2023-10-13T05:20:40.311Z,80.66
2023-10-13T05:23:27.201Z,80.73
2023-10-13T05:26:13.865Z,80.98
2023-10-13T05:29:00.302Z,81.30
2023-10-13T05:31:47.412Z,81.53
2023-10-13T05:34:34.544Z,81.52
2023-10-13T05:37:21.242Z,81.54
2023-10-13T05:40:08.359Z,81.53
2023-10-13T05:42:54.839Z,81.70
2023-10-13T05:45:41.259Z,81.99
2023-10-13T05:48:25.797Z,82.05
2023-10-13T05:51:12.838Z,81.78
2023-10-13T05:53:59.657Z,81.61
2023-10-13T05:56:46.439Z,81.68
2023-10-13T05:59:33.427Z,81.82
2023-10-13T06:02:19.734Z,82.21
2023-10-13T06:05:06.437Z,82.67
2023-10-13T06:07:54.464Z,82.88
2023-10-13T06:10:43.269Z,82.95
2023-10-13T06:14:30.480Z,83.16
2023-10-13T06:18:18.961Z,83.27
2023-10-13T06:36:13.441Z,83.75
2023-10-13T06:39:02.149Z,83.67
2023-10-13T06:42:10.438Z,83.56
2023-10-13T06:45:18.662Z,83.66
2023-10-13T06:48:26.777Z,84.13
2023-10-13T06:51:54.724Z,84.80
2023-10-13T06:55:51.707Z,84.90
2023-10-13T06:59:59.432Z,85.37
2023-10-13T07:30:21.190Z,85.52
2023-10-13T07:33:14.428Z,84.97
2023-10-13T07:36:25.557Z,84.74
2023-10-13T07:39:47.289Z,84.95
2023-10-13T07:43:35.136Z,84.83
2023-10-13T07:46:23.689Z,84.57
2023-10-13T07:50:12.009Z,84.44
2023-10-13T07:53:59.875Z,84.67
2023-10-13T08:22:03.397Z,82.80
2023-10-13T08:25:37.138Z,82.47
2023-10-13T08:28:55.146Z,82.09
2023-10-13T08:32:15.815Z,81.84
2023-10-13T08:35:31.541Z,81.59
2023-10-13T08:39:17.112Z,81.36
2023-10-13T08:42:47.826Z,81.28
2023-10-13T08:57:52.823Z,80.21
2023-10-13T09:01:36.379Z,79.98
2023-10-13T09:16:43.603Z,79.68
2023-10-13T09:19:13.528Z,79.50
2023-10-13T09:21:42.854Z,79.26
2023-10-13T09:24:27.692Z,78.81
2023-10-13T09:26:56.932Z,78.37
2023-10-13T09:29:26.408Z,77.89
2023-10-13T09:32:05.436Z,77.44
2023-10-13T09:34:41.902Z,76.86
2023-10-13T09:37:30.158Z,76.15
2023-10-13T09:41:01.834Z,75.42
2023-10-13T09:44:31.361Z,74.89
2023-10-13T09:47:42.050Z,74.39
2023-10-13T09:50:48.033Z,74.20
2023-10-13T09:53:19.536Z,74.48
2023-10-13T09:56:12.477Z,74.54
2023-10-13T09:59:09.664Z,74.71
2023-10-13T10:01:51.814Z,74.61
2023-10-13T10:04:24.585Z,74.67
2023-10-13T10:06:57.509Z,74.75
2023-10-13T10:09:50.760Z,75.06
2023-10-13T10:12:30.856Z,75.50
2023-10-13T10:15:21.575Z,76.11
2023-10-13T10:18:49.926Z,76.38
2023-10-13T10:22:58.144Z,76.33
2023-10-13T10:29:03.389Z,76.69
2023-10-13T10:31:42.632Z,76.63
2023-10-13T10:34:21.035Z,76.71
2023-10-13T10:37:15.866Z,76.87
2023-10-13T10:39:51.206Z,76.86
2023-10-13T10:47:38.612Z,76.82
2023-10-13T10:50:36.147Z,76.97
2023-10-13T10:53:11.314Z,77.01
2023-10-13T10:55:42.605Z,76.97
2023-10-13T10:58:56.337Z,76.33
2023-10-13T11:02:24.646Z,76.37
2023-10-13T11:05:18.223Z,76.25
2023-10-13T11:07:52.259Z,76.18
2023-10-13T11:10:28.500Z,76.17
2023-10-13T11:13:24.740Z,75.98
2023-10-13T11:15:52.101Z,75.90
2023-10-13T11:18:39.158Z,75.94
2023-10-13T11:21:08.292Z,75.93
2023-10-13T11:23:40.847Z,76.27
2023-10-13T11:26:09.037Z,76.50
2023-10-13T11:29:11.030Z,76.63
2023-10-13T11:31:44.002Z,75.64
2023-10-13T11:34:14.763Z,75.08
2023-10-13T11:36:45.667Z,74.57
2023-10-13T11:39:25.836Z,74.02
2023-10-13T11:43:13.585Z,74.00
2023-10-13T11:46:47.943Z,73.14
2023-10-13T11:50:02.643Z,72.54
2023-10-13T11:53:25.163Z,72.00
2023-10-13T11:57:39.121Z,71.24
2023-10-13T12:01:07.149Z,70.83
2023-10-13T12:05:03.866Z,70.79
2023-10-13T12:07:46.690Z,71.30
2023-10-13T12:33:52.934Z,67.91
2023-10-13T12:36:22.471Z,66.67
2023-10-13T12:39:02.383Z,66.54
2023-10-13T12:41:48.898Z,66.64
2023-10-13T12:44:43.775Z,66.81
2023-10-13T12:47:32.970Z,66.70
2023-10-13T12:50:08.638Z,66.22
2023-10-13T12:52:41.771Z,66.28
2023-10-13T12:55:11.464Z,66.09
2023-10-13T12:57:45.970Z,66.24
2023-10-13T13:00:26.444Z,66.31
2023-10-13T13:02:57.549Z,66.36
2023-10-13T13:05:43.355Z,66.73
2023-10-13T13:08:13.682Z,67.13
2023-10-13T13:10:44.998Z,67.02
2023-10-13T13:13:14.191Z,67.29
2023-10-13T13:15:42.175Z,67.36
2023-10-13T13:18:13.247Z,67.43
2023-10-13T13:20:44.727Z,67.40
2023-10-13T13:23:15.428Z,67.59
2023-10-13T13:26:16.573Z,67.64
2023-10-13T13:28:51.482Z,67.48
2023-10-13T13:31:20.578Z,66.97
2023-10-13T13:33:48.566Z,66.34
2023-10-13T13:36:17.612Z,66.07
2023-10-13T13:39:26.187Z,65.72
2023-10-13T13:41:58.001Z,65.07
2023-10-13T13:44:30.441Z,64.01
2023-10-13T13:46:58.677Z,63.57
2023-10-13T13:49:41.569Z,63.30
2023-10-13T13:52:19.092Z,62.94
2023-10-13T13:54:50.194Z,63.19
2023-10-13T13:57:24.045Z,63.10
2023-10-13T13:59:59.050Z,62.93
2023-10-13T14:02:29.909Z,63.12
2023-10-13T14:04:58.734Z,63.17
2023-10-13T14:07:47.165Z,62.74
2023-10-13T14:10:54.972Z,63.03
2023-10-13T14:13:43.349Z,63.62
2023-10-13T14:16:17.717Z,63.49
2023-10-13T14:18:51.218Z,63.68
2023-10-13T14:21:25.832Z,63.83
2023-10-13T14:23:54.884Z,64.37
2023-10-13T14:26:35.706Z,64.58
2023-10-13T14:29:09.301Z,64.66
2023-10-13T14:31:40.084Z,65.03
2023-10-13T14:34:09.045Z,65.04
2023-10-13T14:36:38.066Z,65.07
2023-10-13T14:39:22.793Z,65.02
2023-10-13T14:41:51.024Z,65.23
2023-10-13T14:44:19.365Z,65.43
2023-10-13T14:46:47.526Z,65.78
2023-10-13T14:49:19.962Z,66.03
2023-10-13T14:51:48.263Z,66.32
2023-10-13T14:54:17.718Z,66.62
2023-10-13T14:56:45.852Z,66.80
2023-10-13T14:59:18.504Z,67.13
2023-10-13T15:01:48.091Z,66.87
2023-10-13T15:04:16.633Z,67.09
2023-10-13T15:06:45.586Z,67.16
2023-10-13T15:09:13.841Z,67.34
2023-10-13T15:11:49.762Z,67.31
2023-10-13T15:14:21.533Z,67.30
2023-10-13T15:16:50.806Z,67.33
2023-10-13T15:19:19.389Z,67.56
2023-10-13T15:21:54.206Z,67.65
2023-10-13T15:24:26.976Z,67.71
2023-10-13T15:27:04.208Z,67.67
2023-10-13T15:29:38.682Z,67.88
2023-10-13T15:32:27.752Z,68.03
2023-10-13T15:34:57.286Z,68.16
2023-10-13T15:37:26.840Z,68.05
2023-10-13T15:39:57.139Z,68.40
2023-10-13T15:42:25.471Z,68.50
2023-10-13T15:45:36.736Z,68.43
2023-10-13T15:48:17.960Z,68.80
2023-10-13T15:50:51.419Z,68.94
2023-10-13T15:53:22.473Z,69.13
2023-10-13T15:55:51.295Z,69.03
2023-10-13T15:58:20.603Z,69.47
2023-10-13T16:00:49.229Z,69.65
2023-10-13T16:03:37.380Z,69.61
2023-10-13T16:06:11.242Z,69.79
2023-10-13T16:08:43.756Z,70.22
2023-10-13T16:11:31.994Z,70.38
2023-10-13T16:14:00.068Z,70.45
2023-10-13T16:16:28.388Z,70.62
2023-10-13T16:18:57.058Z,70.85
2023-10-13T16:21:45.635Z,71.15
2023-10-13T16:24:18.715Z,71.34
2023-10-13T16:27:15.276Z,71.36
2023-10-13T16:29:45.188Z,71.52
2023-10-13T16:32:36.132Z,71.60
2023-10-13T16:35:08.272Z,71.80
2023-10-13T16:37:36.433Z,71.98
2023-10-13T16:40:43.969Z,72.27
2023-10-13T16:43:15.369Z,72.56
2023-10-13T16:46:14.948Z,72.74
2023-10-13T16:49:03.759Z,72.83
2023-10-13T16:52:12.097Z,73.32
2023-10-13T16:54:41.715Z,73.63
2023-10-13T16:57:30.029Z,73.99
2023-10-13T17:00:20.050Z,74.46
2023-10-13T17:02:48.443Z,74.59
2023-10-13T17:05:37.202Z,74.77
2023-10-13T17:08:25.311Z,74.99
2023-10-13T17:10:57.856Z,75.27
2023-10-13T17:13:28.492Z,75.55
2023-10-13T17:16:00.693Z,75.74
2023-10-13T17:18:38.592Z,75.89
2023-10-13T17:21:55.114Z,76.05
2023-10-13T17:24:43.364Z,76.38
2023-10-13T17:27:55.732Z,76.58
2023-10-13T17:31:06.820Z,76.99
2023-10-13T17:33:59.650Z,77.00
2023-10-13T17:36:29.936Z,77.08
2023-10-13T17:39:18.453Z,77.11
2023-10-13T17:41:46.688Z,77.37
2023-10-13T17:44:15.908Z,77.60
2023-10-13T17:46:47.444Z,77.50
2023-10-13T17:49:55.404Z,77.57
2023-10-13T17:52:23.608Z,77.46
2023-10-13T17:56:15.422Z,77.69
2023-10-13T17:59:23.922Z,77.68
2023-10-13T18:01:52.647Z,77.83
2023-10-13T18:04:22.053Z,77.96
2023-10-13T18:07:33.189Z,77.98
2023-10-13T18:10:01.390Z,77.77
2023-10-13T18:12:30.557Z,77.73
2023-10-13T18:14:58.629Z,77.82
2023-10-13T18:17:33.568Z,77.81
2023-10-13T18:20:05.002Z,77.76
2023-10-13T18:22:33.106Z,77.71
2023-10-13T18:25:22.775Z,77.78
2023-10-13T18:28:11.502Z,77.94
2023-10-13T18:31:03.412Z,77.98
2023-10-13T18:33:35.954Z,78.17
2023-10-13T18:36:21.434Z,78.39
2023-10-13T18:39:10.249Z,78.55
2023-10-13T18:42:18.141Z,78.73
2023-10-13T18:45:06.383Z,78.93
2023-10-13T18:47:35.201Z,79.07
2023-10-13T18:50:06.489Z,79.17
2023-10-13T18:52:34.884Z,79.32
2023-10-13T18:55:06.730Z,79.52
2023-10-13T18:57:55.059Z,79.61
2023-10-13T19:00:27.122Z,79.70
2023-10-13T19:02:55.757Z,79.81
2023-10-13T19:05:23.962Z,80.11
2023-10-13T19:08:13.818Z,80.31
2023-10-13T19:10:42.011Z,80.49
2023-10-13T19:13:30.125Z,80.76
2023-10-13T19:16:02.331Z,81.09
2023-10-13T19:19:34.208Z,81.41
2023-10-13T19:27:00.195Z,81.81
2023-10-13T19:30:28.794Z,81.85
2023-10-13T19:44:26.069Z,81.94
2023-10-13T19:48:04.858Z,82.17
2023-10-13T20:02:24.039Z,82.15
2023-10-13T20:17:42.240Z,82.33
2023-10-13T20:21:30.863Z,82.24
2023-10-13T20:43:21.049Z,82.58
2023-10-13T20:46:10.507Z,82.85
2023-10-13T20:48:39.226Z,82.84
2023-10-13T20:51:11.190Z,82.88
2023-10-13T20:53:59.304Z,83.08
2023-10-13T20:56:50.891Z,83.26
2023-10-13T20:59:22.493Z,83.38
2023-10-13T21:02:31.876Z,83.62
2023-10-13T21:05:42.599Z,83.54
2023-10-13T21:09:12.689Z,83.70
2023-10-13T21:12:43.198Z,83.83
2023-10-13T21:15:17.375Z,83.88
2023-10-13T21:18:15.137Z,83.89
2023-10-13T21:22:14.482Z,84.02
2023-10-13T21:26:11.180Z,84.15
2023-10-13T21:34:20.503Z,84.63
2023-10-13T21:36:52.692Z,84.70
2023-10-13T21:39:30.841Z,85.14
2023-10-13T21:42:06.813Z,84.94
2023-10-13T21:44:38.389Z,84.72
2023-10-13T21:47:08.313Z,84.58
2023-10-13T23:31:53.242Z,85.92
2023-10-13T23:34:22.518Z,85.76
2023-10-13T23:36:49.586Z,85.65
2023-10-13T23:39:28.381Z,85.70
2023-10-13T23:41:58.678Z,85.75
2023-10-13T23:44:32.965Z,85.90
2023-10-13T23:47:00.134Z,85.93
2023-10-13T23:49:28.532Z,86.02
2023-10-13T23:52:01.833Z,85.97
2023-10-13T23:54:31.588Z,85.97
2023-10-13T23:57:01.501Z,86.04
2023-10-13T23:59:28.905Z,86.18
